Time;durP1;ratioP1;P1;durP2;ratioP2;P2;SDS_P1;SDS_P2;PMS_P1;PMS_P2;Temp;Humidity;BMP_temperature;BMP_pressure;BME280_temperature;BME280_humidity;BME280_pressure;Samples;Min_cycle;Max_cycle;Signal;HPM_P1;HPM_P2
2023/08/17 00:01:00;;;;;;;2.40;1.03;;;21.10;99.90;;;;;;5055995;28;20202;-54
2023/08/17 00:03:27;;;;;;;0.70;0.70;;;21.10;99.90;;;;;;5070097;28;20250;-53
2023/08/17 00:05:54;;;;;;;1.03;0.80;;;21.10;99.90;;;;;;5070652;28;20217;-52
2023/08/17 00:08:20;;;;;;;2.00;0.60;;;21.00;99.90;;;;;;5070315;28;20209;-52
2023/08/17 00:10:47;;;;;;;1.60;0.80;;;20.90;99.90;;;;;;5070316;28;20209;-52
2023/08/17 00:13:15;;;;;;;1.03;1.03;;;20.90;99.90;;;;;;5073522;28;20270;-53
2023/08/17 00:15:45;;;;;;;1.23;1.00;;;20.90;99.90;;;;;;5078120;28;20281;-52
2023/08/17 00:18:12;;;;;;;2.00;1.00;;;20.80;99.90;;;;;;5078712;28;20197;-52
2023/08/17 00:20:38;;;;;;;0.80;0.80;;;20.80;99.90;;;;;;5070210;28;20675;-53
2023/08/17 00:23:06;;;;;;;1.10;1.10;;;20.80;99.90;;;;;;5072281;28;20226;-53
2023/08/17 00:25:33;;;;;;;1.23;1.10;;;20.80;99.90;;;;;;5073969;28;20619;-54
2023/08/17 00:28:00;;;;;;;1.10;1.10;;;20.80;99.90;;;;;;5080817;28;20254;-53
2023/08/17 00:30:27;;;;;;;1.00;1.00;;;20.70;99.90;;;;;;5090208;28;20599;-52
2023/08/17 00:32:55;;;;;;;1.63;1.13;;;20.80;99.90;;;;;;5079432;28;20218;-52
2023/08/17 00:35:22;;;;;;;1.53;1.13;;;20.80;99.90;;;;;;5081732;28;20693;-52
2023/08/17 00:37:49;;;;;;;1.30;1.20;;;20.70;99.90;;;;;;5084049;28;20882;-52
2023/08/17 00:40:16;;;;;;;1.60;1.20;;;20.80;99.90;;;;;;5081972;28;20216;-53
2023/08/17 00:42:43;;;;;;;1.80;0.93;;;20.80;99.90;;;;;;5080163;28;20205;-52
2023/08/17 00:45:10;;;;;;;1.00;1.00;;;20.80;99.90;;;;;;5070099;28;20258;-53
2023/08/17 00:47:38;;;;;;;3.03;0.53;;;20.80;99.90;;;;;;5070447;28;20220;-53
2023/08/17 00:50:07;;;;;;;2.83;0.80;;;20.70;99.90;;;;;;5064405;28;20221;-52
2023/08/17 00:52:35;;;;;;;1.43;1.00;;;20.70;99.90;;;;;;5074865;28;20201;-53
2023/08/17 00:55:03;;;;;;;2.07;0.80;;;20.60;99.90;;;;;;5070877;28;20732;-53
2023/08/17 00:57:32;;;;;;;0.90;0.90;;;20.60;99.90;;;;;;5070105;28;20221;-53
2023/08/17 01:00:00;;;;;;;1.17;0.93;;;20.60;99.90;;;;;;5070357;28;20221;-53
2023/08/17 01:02:27;;;;;;;2.87;0.63;;;20.60;99.90;;;;;;5070010;28;20240;-52
2023/08/17 01:04:55;;;;;;;1.97;1.50;;;20.60;99.90;;;;;;5070193;28;20283;-53
2023/08/17 01:07:23;;;;;;;2.30;0.90;;;20.50;99.90;;;;;;5073000;28;20246;-53
2023/08/17 01:09:50;;;;;;;0.90;0.90;;;20.50;99.90;;;;;;5088938;28;20364;-53
2023/08/17 01:12:26;;;;;;;0.97;0.97;;;20.50;99.90;;;;;;5094247;28;20554;-53
2023/08/17 01:15:01;;;;;;;1.13;0.90;;;20.50;99.90;;;;;;5094325;28;20219;-53
2023/08/17 01:17:34;;;;;;;1.23;1.13;;;20.50;99.90;;;;;;5082896;28;20215;-53
2023/08/17 01:20:04;;;;;;;2.00;0.93;;;20.50;99.90;;;;;;5093182;28;20592;-53
2023/08/17 01:22:36;;;;;;;2.13;0.80;;;20.40;99.90;;;;;;5089596;28;20634;-53
2023/08/17 01:25:04;;;;;;;1.50;1.33;;;20.40;99.90;;;;;;5078030;28;20586;-53
2023/08/17 01:27:46;;;;;;;2.00;0.90;;;20.40;99.90;;;;;;5082183;28;20193;-52
2023/08/17 01:30:16;;;;;;;0.90;0.90;;;20.40;99.90;;;;;;5078235;28;20232;-52
2023/08/17 01:32:49;;;;;;;1.80;1.10;;;20.40;99.90;;;;;;5090046;28;20193;-53
2023/08/17 01:35:23;;;;;;;2.33;0.87;;;20.40;99.90;;;;;;5094170;28;20405;-52
2023/08/17 01:37:54;;;;;;;0.60;0.60;;;20.30;99.90;;;;;;5091086;28;20261;-52
2023/08/17 01:40:23;;;;;;;1.53;0.80;;;20.30;99.90;;;;;;5085622;28;20220;-53
2023/08/17 01:42:51;;;;;;;0.90;0.90;;;20.30;99.90;;;;;;5077309;28;20234;-53
2023/08/17 01:45:19;;;;;;;0.97;0.90;;;20.30;99.90;;;;;;5086713;28;20204;-52
2023/08/17 01:47:46;;;;;;;1.50;1.20;;;20.20;99.90;;;;;;5093859;28;20200;-53
2023/08/17 01:50:13;;;;;;;2.40;1.23;;;20.30;99.90;;;;;;5093562;28;20224;-53
2023/08/17 01:52:40;;;;;;;1.00;1.00;;;20.20;99.90;;;;;;5093475;28;20205;-52
2023/08/17 01:55:08;;;;;;;2.53;1.07;;;20.20;99.90;;;;;;5074701;28;20221;-53
2023/08/17 01:57:36;;;;;;;1.90;1.53;;;20.10;99.90;;;;;;5073137;28;20281;-52
2023/08/17 02:00:04;;;;;;;1.70;0.80;;;20.10;99.90;;;;;;5071740;28;20228;-53
2023/08/17 02:02:31;;;;;;;2.63;0.87;;;20.10;99.90;;;;;;5072186;28;20197;-53
2023/08/17 02:04:58;;;;;;;1.00;1.00;;;20.10;99.90;;;;;;5083646;28;20193;-53
2023/08/17 02:07:25;;;;;;;1.03;1.00;;;20.10;99.90;;;;;;5075318;28;20677;-54
2023/08/17 02:09:52;;;;;;;0.90;0.80;;;20.00;99.90;;;;;;5080900;28;20244;-51
2023/08/17 02:12:19;;;;;;;1.07;1.03;;;20.00;99.90;;;;;;5072755;28;20693;-51
2023/08/17 02:14:48;;;;;;;0.93;0.93;;;20.00;99.90;;;;;;5072762;28;20687;-51
2023/08/17 02:17:16;;;;;;;0.80;0.80;;;20.00;99.90;;;;;;5072853;28;20554;-51
2023/08/17 02:19:43;;;;;;;1.40;1.30;;;20.00;99.90;;;;;;5071077;28;20225;-51
2023/08/17 02:22:10;;;;;;;1.20;1.20;;;20.00;99.90;;;;;;5084100;28;20727;-51
2023/08/17 02:24:37;;;;;;;2.57;1.17;;;20.00;99.90;;;;;;5085255;28;20201;-51
2023/08/17 02:27:04;;;;;;;0.80;0.80;;;20.00;99.90;;;;;;5083947;28;20197;-51
2023/08/17 02:29:32;;;;;;;1.47;1.10;;;20.00;99.90;;;;;;5092744;28;20220;-51
2023/08/17 02:32:00;;;;;;;1.40;1.30;;;20.00;99.90;;;;;;5084003;28;20232;-51
2023/08/17 02:34:27;;;;;;;0.90;0.90;;;19.80;99.90;;;;;;5083738;28;20269;-51
2023/08/17 02:36:54;;;;;;;1.20;1.10;;;19.90;99.90;;;;;;5092617;28;20204;-51
2023/08/17 02:39:21;;;;;;;1.07;1.07;;;19.90;99.90;;;;;;5092722;28;20231;-51
2023/08/17 02:41:49;;;;;;;1.00;1.00;;;19.90;99.90;;;;;;5086054;28;20205;-51
2023/08/17 02:44:16;;;;;;;1.10;1.10;;;19.90;99.90;;;;;;5079899;28;20193;-52
2023/08/17 02:46:43;;;;;;;0.80;0.80;;;19.90;99.90;;;;;;5083953;28;20253;-51
2023/08/17 02:49:11;;;;;;;1.27;0.93;;;19.80;99.90;;;;;;5092278;28;20301;-51
2023/08/17 02:51:38;;;;;;;3.23;1.03;;;19.80;99.90;;;;;;5092366;28;20262;-51
2023/08/17 02:54:06;;;;;;;1.10;1.10;;;19.80;99.90;;;;;;5092009;28;20220;-50
2023/08/17 02:56:33;;;;;;;1.47;1.37;;;19.70;99.90;;;;;;5084627;28;20201;-51
2023/08/17 02:59:00;;;;;;;0.87;0.87;;;19.70;99.90;;;;;;5070539;28;20270;-51
2023/08/17 03:01:27;;;;;;;1.20;1.20;;;19.70;99.90;;;;;;5086504;28;20261;-51
2023/08/17 03:03:54;;;;;;;1.30;1.10;;;19.70;99.90;;;;;;5092041;28;20279;-51
2023/08/17 03:06:22;;;;;;;0.77;0.77;;;19.70;99.90;;;;;;5091939;28;20208;-51
2023/08/17 03:08:49;;;;;;;1.10;1.07;;;19.60;99.90;;;;;;5085249;28;20302;-51
2023/08/17 03:11:16;;;;;;;1.73;1.00;;;19.60;99.90;;;;;;5083557;28;20242;-51
2023/08/17 03:13:43;;;;;;;1.43;1.33;;;19.60;99.90;;;;;;5088450;28;20216;-51
2023/08/17 03:16:10;;;;;;;0.77;0.77;;;19.60;99.90;;;;;;5079869;28;20197;-51
2023/08/17 03:18:37;;;;;;;2.37;0.90;;;19.50;99.90;;;;;;5071319;28;20217;-51
2023/08/17 03:21:04;;;;;;;2.17;1.20;;;19.40;99.90;;;;;;5069413;28;20204;-51
2023/08/17 03:23:33;;;;;;;1.50;1.40;;;19.40;99.90;;;;;;5074587;28;20266;-51
2023/08/17 03:26:00;;;;;;;2.00;1.60;;;19.40;99.90;;;;;;5071673;28;20239;-51
2023/08/17 03:28:28;;;;;;;1.73;1.73;;;19.40;99.90;;;;;;5071430;28;20255;-51
2023/08/17 03:30:56;;;;;;;1.03;1.03;;;19.50;99.90;;;;;;5066745;28;20205;-51
2023/08/17 03:33:23;;;;;;;1.40;1.30;;;19.60;99.90;;;;;;5077873;28;20205;-51
2023/08/17 03:35:50;;;;;;;1.43;1.43;;;19.60;99.90;;;;;;5080801;28;20205;-51
2023/08/17 03:38:17;;;;;;;1.53;1.43;;;19.60;99.90;;;;;;5077144;28;20204;-51
2023/08/17 03:40:45;;;;;;;1.70;1.60;;;19.40;99.90;;;;;;5083017;28;20196;-51
2023/08/17 03:43:12;;;;;;;1.63;1.30;;;19.40;99.90;;;;;;5091165;28;20196;-51
2023/08/17 03:45:41;;;;;;;1.67;1.50;;;19.40;99.90;;;;;;5088412;28;20200;-51
2023/08/17 03:48:10;;;;;;;2.17;1.20;;;19.30;99.90;;;;;;5066185;28;20201;-51
2023/08/17 03:50:36;;;;;;;1.60;1.50;;;19.20;99.90;;;;;;5087046;28;20644;-51
2023/08/17 03:53:07;;;;;;;1.50;1.50;;;19.10;99.90;;;;;;5069802;28;20262;-51
2023/08/17 03:55:34;;;;;;;1.80;1.60;;;19.00;99.90;;;;;;5062224;28;20626;-51
2023/08/17 03:58:06;;;;;;;2.07;1.30;;;19.00;99.90;;;;;;5049954;28;20224;-51
2023/08/17 04:00:33;;;;;;;1.43;1.30;;;18.90;99.90;;;;;;5052232;28;20297;-51
2023/08/17 04:03:00;;;;;;;1.57;1.47;;;18.90;99.90;;;;;;5064096;28;20741;-51
2023/08/17 04:05:28;;;;;;;1.73;1.70;;;18.90;99.90;;;;;;5058432;28;20636;-51
2023/08/17 04:07:55;;;;;;;1.77;1.67;;;18.90;99.90;;;;;;5058293;28;20201;-51
2023/08/17 04:10:22;;;;;;;2.00;1.90;;;18.90;99.90;;;;;;5062057;28;20238;-51
2023/08/17 04:12:49;;;;;;;2.57;2.40;;;18.90;99.90;;;;;;5051263;28;20210;-51
2023/08/17 04:15:17;;;;;;;2.20;2.00;;;18.90;99.90;;;;;;5049553;28;20271;-51
2023/08/17 04:17:44;;;;;;;2.30;2.10;;;18.90;99.90;;;;;;5050200;28;20586;-51
2023/08/17 04:20:12;;;;;;;1.77;1.73;;;18.90;99.90;;;;;;5050032;28;20571;-51
2023/08/17 04:22:39;;;;;;;1.60;1.60;;;19.00;99.90;;;;;;5052801;28;20202;-51
2023/08/17 04:25:07;;;;;;;2.10;2.00;;;19.00;99.90;;;;;;5049472;28;20439;-51
2023/08/17 04:27:35;;;;;;;2.73;2.53;;;19.00;99.90;;;;;;5063194;28;20288;-51
2023/08/17 04:30:02;;;;;;;1.70;1.70;;;19.00;99.90;;;;;;5067477;28;20279;-51
2023/08/17 04:32:30;;;;;;;1.53;1.53;;;19.00;99.90;;;;;;5060895;28;20248;-51
2023/08/17 04:34:57;;;;;;;1.10;1.10;;;19.10;99.90;;;;;;5060169;28;20774;-51
2023/08/17 04:37:24;;;;;;;2.17;1.33;;;19.00;99.90;;;;;;5065300;28;20202;-51
2023/08/17 04:39:51;;;;;;;1.70;1.60;;;19.00;99.90;;;;;;5049904;28;20214;-51
2023/08/17 04:42:19;;;;;;;1.33;1.23;;;19.00;99.90;;;;;;5049150;28;20198;-51
2023/08/17 04:44:46;;;;;;;1.63;1.53;;;19.00;99.90;;;;;;5048337;28;20284;-51
2023/08/17 04:47:13;;;;;;;1.70;1.63;;;19.10;99.90;;;;;;5063474;28;20209;-51
2023/08/17 04:49:42;;;;;;;2.50;1.57;;;19.10;99.90;;;;;;5050642;28;20221;-51
2023/08/17 04:52:09;;;;;;;1.70;1.60;;;19.20;99.90;;;;;;5049356;28;20202;-51
2023/08/17 04:54:36;;;;;;;2.00;1.73;;;19.30;99.90;;;;;;5068004;28;20699;-51
2023/08/17 04:57:05;;;;;;;1.50;1.50;;;19.30;99.90;;;;;;5068230;28;20571;-51
2023/08/17 04:59:32;;;;;;;1.90;1.47;;;19.40;99.90;;;;;;5067882;28;20223;-51
2023/08/17 05:01:59;;;;;;;1.37;1.37;;;19.50;99.90;;;;;;5062052;28;20197;-51
2023/08/17 05:04:26;;;;;;;1.53;1.53;;;19.60;99.90;;;;;;5066968;28;20196;-51
2023/08/17 05:06:54;;;;;;;1.70;1.60;;;19.60;99.90;;;;;;5049471;28;20200;-51
2023/08/17 05:09:22;;;;;;;1.40;1.30;;;19.60;99.90;;;;;;5048958;28;20234;-51
2023/08/17 05:11:49;;;;;;;2.30;1.80;;;19.70;99.90;;;;;;5048996;28;20287;-51
2023/08/17 05:14:16;;;;;;;2.83;2.13;;;19.70;99.90;;;;;;5067461;28;20217;-51
2023/08/17 05:16:43;;;;;;;2.30;1.80;;;19.80;99.90;;;;;;5067715;28;20278;-51
2023/08/17 05:19:10;;;;;;;1.37;1.27;;;19.90;99.90;;;;;;5064147;28;20216;-51
2023/08/17 05:21:37;;;;;;;2.30;1.43;;;20.50;99.90;;;;;;5065709;28;20671;-51
2023/08/17 05:24:06;;;;;;;3.73;1.33;;;21.40;99.90;;;;;;5058700;28;20205;-51
2023/08/17 05:26:34;;;;;;;1.20;1.10;;;22.40;99.90;;;;;;5057130;28;20194;-53
2023/08/17 05:29:02;;;;;;;1.20;1.20;;;23.50;99.90;;;;;;5057400;28;20210;-51
2023/08/17 05:31:29;;;;;;;2.33;1.70;;;24.40;99.90;;;;;;5048928;28;20209;-51
2023/08/17 05:33:56;;;;;;;1.73;1.50;;;25.20;99.90;;;;;;5048810;28;20190;-51
2023/08/17 05:36:23;;;;;;;1.97;1.37;;;25.80;99.90;;;;;;5052119;28;20518;-51
2023/08/17 05:38:50;;;;;;;2.07;1.27;;;26.40;99.90;;;;;;5049310;28;20214;-51
2023/08/17 05:41:19;;;;;;;1.67;1.40;;;26.70;99.90;;;;;;5051735;28;20210;-51
2023/08/17 05:43:48;;;;;;;1.70;1.10;;;26.80;99.90;;;;;;5060467;28;20291;-52
2023/08/17 05:46:15;;;;;;;4.73;1.07;;;27.40;99.90;;;;;;5054547;28;20195;-51
2023/08/17 05:48:43;;;;;;;1.10;1.10;;;27.60;99.90;;;;;;5049130;28;20217;-51
2023/08/17 05:51:10;;;;;;;0.88;0.80;;;28.00;99.90;;;;;;5066427;28;20203;-52
2023/08/17 05:53:37;;;;;;;1.50;0.88;;;28.50;99.90;;;;;;5056557;28;20206;-52
2023/08/17 05:56:05;;;;;;;1.95;0.98;;;28.80;99.90;;;;;;5063718;28;20320;-51
2023/08/17 05:58:33;;;;;;;1.85;1.20;;;28.80;99.90;;;;;;5059579;28;20222;-51
2023/08/17 06:01:07;;;;;;;4.10;1.52;;;29.10;99.90;;;;;;5062692;28;20205;-52
2023/08/17 06:03:34;;;;;;;2.42;1.42;;;29.50;99.90;;;;;;5061182;28;20586;-52
2023/08/17 06:06:01;;;;;;;1.58;1.50;;;29.40;99.90;;;;;;5056454;28;20193;-53
2023/08/17 06:08:28;;;;;;;1.85;1.85;;;29.80;99.90;;;;;;5065017;28;20230;-53
2023/08/17 06:10:55;;;;;;;2.53;1.30;;;30.20;99.90;;;;;;5063736;28;20959;-51
2023/08/17 06:13:22;;;;;;;1.23;1.23;;;30.50;99.90;;;;;;5056803;28;20261;-51
2023/08/17 06:15:50;;;;;;;2.28;1.10;;;30.60;99.90;;;;;;5059487;28;20328;-52
2023/08/17 06:18:18;;;;;;;1.35;1.30;;;30.90;99.90;;;;;;5070601;28;20429;-55
2023/08/17 06:20:50;;;;;;;1.10;1.00;;;30.90;99.90;;;;;;5052785;28;20213;-57
2023/08/17 06:23:17;;;;;;;5.20;1.30;;;30.80;99.90;;;;;;5063626;28;20291;-57
2023/08/17 06:25:44;;;;;;;1.65;1.10;;;30.70;99.90;;;;;;5053655;28;20194;-56
2023/08/17 06:28:11;;;;;;;1.40;1.17;;;30.90;99.90;;;;;;5057077;28;20201;-55
2023/08/17 06:30:38;;;;;;;1.92;1.40;;;30.90;99.90;;;;;;5052231;28;20259;-55
2023/08/17 06:33:10;;;;;;;3.30;1.20;;;30.70;99.90;;;;;;5059976;28;20772;-56
2023/08/17 06:35:37;;;;;;;3.40;1.33;;;30.70;99.90;;;;;;5056828;28;20221;-55
2023/08/17 06:38:04;;;;;;;1.02;0.90;;;30.60;99.90;;;;;;5060007;28;20258;-56
2023/08/17 06:40:31;;;;;;;1.75;1.23;;;30.70;99.90;;;;;;5063745;28;20283;-57
2023/08/17 06:42:58;;;;;;;2.08;1.25;;;31.00;99.90;;;;;;5057722;28;20198;-54
2023/08/17 06:45:25;;;;;;;2.70;1.23;;;31.40;99.90;;;;;;5063048;28;20264;-55
2023/08/17 06:47:52;;;;;;;2.72;1.23;;;31.60;99.90;;;;;;5062519;28;20194;-55
2023/08/17 06:50:21;;;;;;;1.60;1.52;;;32.00;99.90;;;;;;5054370;28;20287;-57
2023/08/17 06:52:48;;;;;;;1.45;1.20;;;32.00;99.90;;;;;;5052043;28;20193;-57
2023/08/17 06:55:15;;;;;;;1.27;1.20;;;31.90;99.90;;;;;;5054091;28;20214;-57
2023/08/17 06:57:42;;;;;;;1.35;1.35;;;32.30;99.50;;;;;;5053665;28;20267;-60
2023/08/17 07:00:11;;;;;;;1.48;1.10;;;32.30;99.10;;;;;;5051622;28;20690;-58
2023/08/17 07:02:38;;;;;;;1.20;1.08;;;32.00;99.50;;;;;;5063620;28;20656;-58
2023/08/17 07:05:06;;;;;;;2.35;0.95;;;32.40;99.80;;;;;;5068738;28;20196;-58
2023/08/17 07:07:34;;;;;;;1.00;1.00;;;32.90;98.60;;;;;;5068977;28;20284;-57
2023/08/17 07:10:01;;;;;;;3.30;1.33;;;33.20;97.00;;;;;;5070829;28;20256;-59
2023/08/17 07:12:28;;;;;;;4.10;1.38;;;33.30;97.00;;;;;;5092080;28;20456;-60
2023/08/17 07:14:55;;;;;;;2.58;2.38;;;33.60;97.00;;;;;;5082384;28;20303;-59
2023/08/17 07:17:22;;;;;;;3.92;0.90;;;33.80;96.80;;;;;;5061638;28;20255;-60
2023/08/17 07:19:49;;;;;;;1.25;1.15;;;34.10;97.60;;;;;;5053934;28;20283;-52
2023/08/17 07:22:16;;;;;;;1.98;1.40;;;33.70;97.90;;;;;;5069506;28;20631;-57
2023/08/17 07:24:45;;;;;;;1.88;1.38;;;33.80;95.80;;;;;;5066727;28;20209;-56
2023/08/17 07:27:12;;;;;;;2.25;0.98;;;34.50;95.30;;;;;;5084390;28;20266;-58
2023/08/17 07:29:39;;;;;;;9.05;1.92;;;34.30;94.20;;;;;;5083455;28;20224;-59
2023/08/17 07:32:06;;;;;;;1.63;1.38;;;34.50;94.90;;;;;;5092293;28;20212;-61
2023/08/17 07:34:33;;;;;;;1.85;1.60;;;34.30;94.10;;;;;;5092170;28;20204;-58
2023/08/17 07:37:00;;;;;;;1.20;1.20;;;34.20;95.90;;;;;;5079069;28;20207;-60
2023/08/17 07:39:27;;;;;;;1.58;1.48;;;34.10;94.80;;;;;;5080468;28;20247;-57
2023/08/17 07:41:57;;;;;;;1.63;1.38;;;34.30;94.30;;;;;;5084577;28;20193;-57
2023/08/17 07:44:25;;;;;;;1.73;1.60;;;34.60;96.00;;;;;;5082933;28;20588;-59
2023/08/17 07:46:52;;;;;;;1.27;1.02;;;34.40;95.20;;;;;;5076287;28;20200;-57
2023/08/17 07:49:23;;;;;;;2.80;1.30;;;34.70;93.90;;;;;;5083015;28;20258;-59
2023/08/17 07:51:50;;;;;;;2.35;1.38;;;34.80;92.60;;;;;;5091475;28;20298;-55
2023/08/17 07:54:17;;;;;;;2.08;1.52;;;35.00;93.60;;;;;;5091432;28;20257;-58
2023/08/17 07:56:44;;;;;;;1.52;1.52;;;35.30;92.40;;;;;;5091410;28;20268;-55
2023/08/17 07:59:13;;;;;;;4.38;1.50;;;35.00;92.90;;;;;;5091432;28;20223;-58
2023/08/17 08:01:41;;;;;;;1.10;1.10;;;35.20;91.80;;;;;;5079573;28;20214;-53
2023/08/17 08:04:09;;;;;;;2.33;1.20;;;35.30;91.00;;;;;;5051265;28;20202;-53
2023/08/17 08:06:36;;;;;;;2.05;1.42;;;35.20;93.50;;;;;;5051252;28;20229;-52
2023/08/17 08:09:03;;;;;;;1.90;1.70;;;35.10;93.30;;;;;;5076744;22;20216;-54
2023/08/17 08:11:31;;;;;;;3.60;1.73;;;35.10;93.80;;;;;;5071576;28;20695;-58
2023/08/17 08:13:58;;;;;;;1.48;1.35;;;35.20;92.80;;;;;;5070743;28;20201;-58
2023/08/17 08:16:29;;;;;;;2.00;1.83;;;35.30;93.70;;;;;;5069512;28;20316;-60
2023/08/17 08:18:56;;;;;;;2.67;2.33;;;35.20;93.30;;;;;;5070992;28;20208;-58
2023/08/17 08:21:23;;;;;;;1.73;1.65;;;35.40;92.40;;;;;;5071309;28;20200;-58
2023/08/17 08:23:50;;;;;;;1.73;1.20;;;35.60;92.70;;;;;;5071315;28;20266;-57
2023/08/17 08:26:17;;;;;;;2.00;1.65;;;35.30;91.90;;;;;;5071225;28;20197;-59
2023/08/17 08:28:44;;;;;;;2.10;2.00;;;35.00;93.60;;;;;;5071182;28;20675;-60
2023/08/17 08:31:11;;;;;;;2.53;1.73;;;35.10;91.90;;;;;;5071182;28;20262;-57
2023/08/17 08:33:39;;;;;;;4.43;2.03;;;35.00;93.10;;;;;;5076601;28;20196;-58
2023/08/17 08:36:07;;;;;;;1.67;1.65;;;35.00;91.40;;;;;;5077850;28;20217;-57
2023/08/17 08:38:34;;;;;;;2.03;1.92;;;35.20;93.60;;;;;;5060402;28;20206;-54
2023/08/17 08:41:02;;;;;;;2.08;2.08;;;35.20;91.60;;;;;;5060635;28;20233;-53
2023/08/17 08:43:30;;;;;;;7.18;4.13;;;35.60;93.40;;;;;;5069093;28;20667;-53
2023/08/17 08:45:59;;;;;;;1.73;1.63;;;35.40;93.10;;;;;;5063652;28;20248;-54
2023/08/17 08:48:27;;;;;;;3.55;2.10;;;35.40;91.80;;;;;;5075826;28;20216;-54
2023/08/17 08:50:56;;;;;;;3.10;1.83;;;35.60;92.50;;;;;;5065319;28;20273;-53
2023/08/17 08:53:30;;;;;;;3.10;1.85;;;35.70;93.50;;;;;;5065297;28;20250;-54
2023/08/17 08:56:00;;;;;;;2.05;2.05;;;35.80;91.80;;;;;;5051698;28;20213;-54
2023/08/17 08:58:28;;;;;;;2.33;2.22;;;35.80;92.20;;;;;;5050182;28;20626;-53
2023/08/17 09:00:56;;;;;;;1.83;1.73;;;35.80;92.40;;;;;;5052641;28;20271;-53
2023/08/17 09:03:24;;;;;;;3.45;3.08;;;35.50;92.20;;;;;;5049493;28;20271;-54
2023/08/17 09:05:52;;;;;;;2.55;1.77;;;35.10;90.70;;;;;;5049752;28;20192;-54
2023/08/17 09:08:23;;;;;;;2.90;1.95;;;35.00;92.10;;;;;;5050948;28;20194;-54
2023/08/17 09:10:50;;;;;;;2.47;2.38;;;35.00;94.20;;;;;;5049472;28;20253;-54
2023/08/17 09:13:17;;;;;;;1.45;1.45;;;35.10;92.80;;;;;;5051746;28;20197;-58
2023/08/17 09:15:44;;;;;;;4.40;2.00;;;34.90;92.80;;;;;;5054712;28;20764;-59
2023/08/17 09:18:12;;;;;;;2.33;2.22;;;35.30;92.20;;;;;;5062326;28;20198;-59
2023/08/17 09:20:40;;;;;;;2.45;2.35;;;35.10;90.90;;;;;;5051029;28;20229;-59
2023/08/17 09:23:19;;;;;;;2.38;1.92;;;35.50;93.50;;;;;;5049326;28;20233;-59
2023/08/17 09:25:49;;;;;;;2.25;2.08;;;35.80;91.20;;;;;;5068029;28;20196;-60
2023/08/17 09:28:18;;;;;;;1.77;1.67;;;35.00;92.50;;;;;;5059718;28;20697;-58
2023/08/17 09:30:53;;;;;;;1.67;1.67;;;35.10;92.30;;;;;;5053595;28;20218;-58
2023/08/17 09:33:20;;;;;;;2.30;1.70;;;35.20;93.60;;;;;;5072893;28;20709;-59
2023/08/17 09:35:47;;;;;;;3.03;2.28;;;35.00;91.40;;;;;;5077227;28;20231;-59
2023/08/17 09:38:14;;;;;;;2.78;2.67;;;34.90;91.00;;;;;;5088538;28;20602;-59
2023/08/17 09:40:41;;;;;;;2.90;2.30;;;34.20;92.10;;;;;;5085839;28;20570;-60
2023/08/17 09:43:11;;;;;;;2.15;2.00;;;34.30;93.90;;;;;;5080968;28;20205;-60
2023/08/17 09:45:39;;;;;;;1.73;1.63;;;34.70;92.30;;;;;;5073211;28;20202;-61
2023/08/17 09:48:09;;;;;;;2.08;1.80;;;35.30;91.70;;;;;;5082282;28;20277;-62
2023/08/17 09:50:36;;;;;;;1.80;1.65;;;35.60;92.80;;;;;;5073821;28;20225;-61
2023/08/17 09:53:07;;;;;;;1.77;1.58;;;35.80;92.00;;;;;;5071156;28;20634;-62
2023/08/17 09:55:34;;;;;;;1.65;1.42;;;35.80;90.00;;;;;;5070322;28;20255;-59
2023/08/17 09:58:01;;;;;;;2.05;1.98;;;35.80;91.60;;;;;;5059884;28;20247;-60
2023/08/17 10:00:31;;;;;;;1.58;1.58;;;36.50;90.80;;;;;;5067295;28;20220;-61
2023/08/17 10:02:59;;;;;;;1.65;1.50;;;36.20;92.80;;;;;;5065283;28;20205;-58
2023/08/17 10:05:29;;;;;;;1.63;1.52;;;35.70;92.90;;;;;;5070049;28;20639;-60
2023/08/17 10:08:03;;;;;;;2.03;1.73;;;35.90;93.20;;;;;;5065966;28;20312;-60
2023/08/17 10:10:34;;;;;;;1.90;1.73;;;35.80;92.10;;;;;;5071322;28;20263;-60
2023/08/17 10:13:09;;;;;;;1.95;1.83;;;35.20;91.80;;;;;;5067188;28;20321;-59
2023/08/17 10:15:40;;;;;;;1.75;1.65;;;35.00;91.40;;;;;;5060149;28;20205;-59
2023/08/17 10:18:16;;;;;;;1.90;1.80;;;35.30;92.80;;;;;;5053277;28;20687;-58
2023/08/17 10:20:50;;;;;;;1.80;1.80;;;35.70;87.60;;;;;;5052571;28;20769;-60
2023/08/17 10:23:19;;;;;;;3.10;2.88;;;36.00;89.60;;;;;;5056944;28;20204;-58
2023/08/17 10:25:48;;;;;;;2.95;2.85;;;36.00;93.70;;;;;;5062866;28;20210;-60
2023/08/17 10:28:17;;;;;;;4.00;3.78;;;36.00;94.70;;;;;;5054159;28;20247;-59
2023/08/17 10:30:45;;;;;;;3.78;3.53;;;35.10;96.80;;;;;;5056580;28;20966;-59
2023/08/17 10:33:13;;;;;;;3.83;3.72;;;34.70;96.60;;;;;;5071245;28;20209;-59
2023/08/17 10:35:41;;;;;;;4.18;3.88;;;34.70;96.70;;;;;;5075446;28;20635;-59
2023/08/17 10:38:09;;;;;;;3.85;3.55;;;34.40;98.00;;;;;;5077059;28;20286;-54
2023/08/17 10:40:38;;;;;;;3.83;3.70;;;34.10;99.70;;;;;;5084431;28;20274;-54
2023/08/17 10:43:07;;;;;;;4.10;3.90;;;33.80;97.60;;;;;;5078236;28;20213;-54
2023/08/17 10:45:37;;;;;;;4.35;4.10;;;33.70;99.40;;;;;;5051691;28;20741;-54
2023/08/17 10:48:35;;;;;;;4.60;4.20;;;33.40;99.90;;;;;;5077824;28;20201;-54
2023/08/17 10:51:05;;;;;;;4.72;4.20;;;32.60;99.10;;;;;;4989182;28;20224;-53
2023/08/17 10:53:38;;;;;;;5.47;5.18;;;31.80;99.90;;;;;;5055724;28;20206;-53
2023/08/17 10:56:09;;;;;;;4.25;3.97;;;30.60;99.90;;;;;;5069238;28;20223;-53
2023/08/17 10:58:36;;;;;;;5.25;3.75;;;30.20;99.90;;;;;;5070225;28;20679;-60
2023/08/17 11:01:03;;;;;;;3.63;3.40;;;30.10;99.90;;;;;;5079456;28;20706;-60
2023/08/17 11:03:30;;;;;;;4.00;3.58;;;30.40;99.90;;;;;;5078627;28;20200;-60
2023/08/17 11:05:58;;;;;;;10.95;4.15;;;30.40;99.90;;;;;;5081024;28;20209;-61
2023/08/17 11:08:30;;;;;;;3.80;3.58;;;30.70;99.90;;;;;;5063968;28;20206;-61
2023/08/17 11:11:15;;;;;;;4.93;4.72;;;30.80;99.90;;;;;;5055821;28;20226;-61
2023/08/17 11:13:43;;;;;;;7.93;4.25;;;30.60;99.90;;;;;;5068763;28;20604;-62
2023/08/17 11:16:11;;;;;;;5.30;5.00;;;30.30;99.90;;;;;;5059592;28;20573;-57
2023/08/17 11:18:38;;;;;;;3.75;3.55;;;30.40;99.90;;;;;;5072087;28;20201;-59
2023/08/17 11:21:08;;;;;;;4.43;4.13;;;30.30;99.90;;;;;;5066371;28;20768;-53
2023/08/17 11:23:37;;;;;;;4.13;4.03;;;30.40;99.90;;;;;;5071527;28;20283;-53
2023/08/17 11:26:04;;;;;;;4.30;4.10;;;30.50;99.90;;;;;;5057554;28;20646;-53
2023/08/17 11:28:36;;;;;;;5.65;4.15;;;30.50;99.90;;;;;;5051234;28;20205;-53
2023/08/17 11:31:04;;;;;;;4.03;3.72;;;30.50;99.90;;;;;;5081571;28;20224;-52
2023/08/17 11:33:32;;;;;;;3.95;3.75;;;30.70;99.90;;;;;;5083588;28;20744;-53
2023/08/17 11:36:01;;;;;;;3.97;3.67;;;30.50;99.90;;;;;;5071518;28;20201;-53
2023/08/17 11:38:31;;;;;;;4.13;3.40;;;30.50;99.90;;;;;;5071885;28;20207;-54
2023/08/17 11:40:59;;;;;;;3.83;3.50;;;30.00;99.90;;;;;;5072215;28;20307;-54
2023/08/17 11:43:26;;;;;;;3.00;2.90;;;30.20;99.90;;;;;;5071926;28;20197;-52
2023/08/17 11:45:53;;;;;;;2.87;2.77;;;30.30;99.90;;;;;;5070967;28;20454;-56
2023/08/17 11:48:20;;;;;;;3.17;2.92;;;30.30;99.90;;;;;;5083536;28;20491;-56
2023/08/17 11:50:48;;;;;;;3.38;2.80;;;30.20;99.90;;;;;;5081920;28;20608;-58
2023/08/17 11:53:15;;;;;;;3.45;3.15;;;30.20;99.90;;;;;;5071214;28;20292;-57
2023/08/17 11:55:45;;;;;;;3.60;3.28;;;30.00;99.90;;;;;;5079561;28;20553;-58
2023/08/17 11:58:12;;;;;;;4.13;3.40;;;29.80;99.90;;;;;;5091849;28;20220;-58
2023/08/17 12:00:42;;;;;;;3.28;3.08;;;29.50;99.90;;;;;;5092149;28;20228;-57
2023/08/17 12:03:09;;;;;;;3.25;3.03;;;29.20;99.90;;;;;;5079614;28;20243;-53
2023/08/17 12:05:36;;;;;;;2.67;2.53;;;29.20;99.90;;;;;;5086559;28;20200;-52
2023/08/17 12:08:04;;;;;;;3.13;2.90;;;29.30;99.90;;;;;;5079549;28;20205;-54
2023/08/17 12:10:32;;;;;;;2.60;2.40;;;29.30;99.90;;;;;;5070969;28;20228;-53
2023/08/17 12:13:01;;;;;;;2.95;2.75;;;29.40;99.90;;;;;;5071556;28;20209;-53
2023/08/17 12:15:32;;;;;;;3.45;3.33;;;29.30;99.90;;;;;;5071593;28;20223;-53
2023/08/17 12:18:01;;;;;;;2.72;2.53;;;29.40;99.90;;;;;;5073233;28;20789;-53
2023/08/17 12:20:29;;;;;;;2.80;2.70;;;29.40;99.90;;;;;;5083271;28;20627;-53
2023/08/17 12:22:59;;;;;;;2.75;2.65;;;29.30;99.90;;;;;;5069694;28;20221;-54
2023/08/17 12:25:27;;;;;;;2.50;2.40;;;29.10;99.90;;;;;;5071220;28;20682;-54
2023/08/17 12:27:54;;;;;;;3.95;3.65;;;29.10;99.90;;;;;;5080079;28;20197;-53
2023/08/17 12:30:31;;;;;;;3.40;3.13;;;29.10;99.90;;;;;;5050796;28;20214;-53
2023/08/17 12:32:58;;;;;;;2.13;2.13;;;29.10;99.90;;;;;;5055673;28;20548;-54
2023/08/17 12:35:25;;;;;;;3.72;3.38;;;29.10;99.90;;;;;;5057981;28;20201;-52
2023/08/17 12:37:52;;;;;;;3.83;3.53;;;29.20;99.90;;;;;;5056455;28;20213;-52
2023/08/17 12:40:19;;;;;;;3.20;3.10;;;29.40;99.90;;;;;;5050548;28;20221;-52
2023/08/17 12:42:46;;;;;;;2.55;2.38;;;29.40;99.90;;;;;;5055257;28;20202;-52
2023/08/17 12:45:13;;;;;;;3.25;3.15;;;29.40;99.90;;;;;;5057831;28;20197;-52
2023/08/17 12:47:42;;;;;;;3.30;3.20;;;29.10;99.90;;;;;;5056563;28;20247;-52
2023/08/17 12:50:10;;;;;;;3.92;3.63;;;29.00;99.90;;;;;;5049895;28;20217;-53
2023/08/17 12:52:37;;;;;;;3.45;3.17;;;29.00;99.90;;;;;;5064123;28;20623;-53